Time;durP1;ratioP1;P1;durP2;ratioP2;P2;SDS_P1;SDS_P2;PMS_P1;PMS_P2;Temp;Humidity;BMP_temperature;BMP_pressure;BME280_temperature;BME280_humidity;BME280_pressure;Samples;Min_cycle;Max_cycle;Signal;HPM_P1;HPM_P2
2024/01/12 00:01:35;;;;;;;34.07;19.73;;;;;;;;;;6246513;23;20737;-69
2024/01/12 00:04:02;;;;;;;34.30;19.90;;;;;;;;;;6246364;23;20405;-69
2024/01/12 00:06:28;;;;;;;42.10;21.57;;;;;;;;;;6246482;23;20379;-69
2024/01/12 00:08:54;;;;;;;45.03;22.30;;;;;;;;;;6245995;23;20434;-68
2024/01/12 00:11:20;;;;;;;44.03;22.90;;;;;;;;;;6246458;23;20370;-69
2024/01/12 00:13:46;;;;;;;30.73;19.37;;;;;;;;;;6246453;23;20528;-69
2024/01/12 00:16:12;;;;;;;32.77;18.00;;;;;;;;;;6246827;23;20366;-68
2024/01/12 00:18:38;;;;;;;36.17;19.03;;;;;;;;;;6245824;23;20417;-69
2024/01/12 00:21:04;;;;;;;32.70;20.00;;;;;;;;;;6245958;23;20378;-69
2024/01/12 00:23:30;;;;;;;31.53;16.07;;;;;;;;;;6245940;23;20916;-69
2024/01/12 00:25:59;;;;;;;31.17;17.13;;;;;;;;;;6246268;23;20386;-68
2024/01/12 00:28:27;;;;;;;29.03;18.47;;;;;;;;;;6246057;23;20437;-68
2024/01/12 00:30:53;;;;;;;29.50;17.10;;;;;;;;;;6246285;23;20465;-68
2024/01/12 00:33:19;;;;;;;30.43;17.97;;;;;;;;;;6218827;23;20891;-69
2024/01/12 00:35:45;;;;;;;32.43;18.43;;;;;;;;;;6245882;23;20383;-69
2024/01/12 00:38:11;;;;;;;28.87;17.30;;;;;;;;;;6244916;23;20422;-69
2024/01/12 00:40:38;;;;;;;35.43;18.80;;;;;;;;;;6245300;23;20371;-69
2024/01/12 00:43:04;;;;;;;36.33;20.07;;;;;;;;;;6246330;23;20372;-69
2024/01/12 00:45:30;;;;;;;33.97;19.67;;;;;;;;;;6246684;23;20413;-69
2024/01/12 00:47:56;;;;;;;33.13;19.80;;;;;;;;;;6246461;23;20495;-69
2024/01/12 00:50:23;;;;;;;34.63;16.57;;;;;;;;;;6246218;23;20366;-68
2024/01/12 00:52:48;;;;;;;35.70;19.23;;;;;;;;;;6246660;23;20374;-69
2024/01/12 00:55:15;;;;;;;31.93;18.03;;;;;;;;;;6246128;23;20424;-68
2024/01/12 00:57:41;;;;;;;37.03;19.00;;;;;;;;;;6246184;23;20378;-68
2024/01/12 01:00:07;;;;;;;36.60;18.17;;;;;;;;;;6246378;23;20382;-68
2024/01/12 01:02:33;;;;;;;34.50;18.80;;;;;;;;;;6246479;23;20521;-69
2024/01/12 01:04:59;;;;;;;38.60;19.10;;;;;;;;;;6246392;23;20440;-69
2024/01/12 01:07:25;;;;;;;27.63;17.77;;;;;;;;;;6246748;23;20418;-68
2024/01/12 01:09:51;;;;;;;33.80;18.83;;;;;;;;;;6246400;23;20422;-69
2024/01/12 01:12:17;;;;;;;37.23;19.80;;;;;;;;;;6246431;23;20394;-68
2024/01/12 01:14:43;;;;;;;34.77;20.23;;;;;;;;;;6245818;23;20389;-69
2024/01/12 01:17:09;;;;;;;34.20;20.30;;;;;;;;;;6246269;23;20370;-69
2024/01/12 01:19:35;;;;;;;35.80;19.43;;;;;;;;;;6246515;23;20664;-68
2024/01/12 01:22:01;;;;;;;33.17;18.60;;;;;;;;;;6246345;23;20389;-69
2024/01/12 01:24:29;;;;;;;27.93;18.30;;;;;;;;;;6246339;23;20374;-69
2024/01/12 01:26:55;;;;;;;34.10;18.67;;;;;;;;;;6246163;23;20398;-69
2024/01/12 01:29:21;;;;;;;32.40;18.80;;;;;;;;;;6246114;23;20418;-69
2024/01/12 01:31:48;;;;;;;29.97;17.87;;;;;;;;;;6246279;23;20684;-69
2024/01/12 01:34:14;;;;;;;36.77;17.67;;;;;;;;;;6245955;23;20385;-68
2024/01/12 01:36:40;;;;;;;31.77;18.43;;;;;;;;;;6245866;23;20370;-69
2024/01/12 01:39:06;;;;;;;35.47;19.00;;;;;;;;;;6245661;23;20434;-69
2024/01/12 01:41:32;;;;;;;32.43;19.97;;;;;;;;;;6246229;23;20386;-69
2024/01/12 01:43:58;;;;;;;37.10;18.40;;;;;;;;;;6245823;23;20508;-69
2024/01/12 01:46:25;;;;;;;32.20;18.20;;;;;;;;;;6245889;23;20716;-68
2024/01/12 01:48:51;;;;;;;30.73;18.27;;;;;;;;;;6245598;23;20508;-69
2024/01/12 01:51:17;;;;;;;38.07;18.03;;;;;;;;;;6245849;23;20376;-69
2024/01/12 01:53:43;;;;;;;30.47;17.57;;;;;;;;;;6246193;23;20417;-68
2024/01/12 01:56:10;;;;;;;33.87;19.00;;;;;;;;;;6246359;23;20694;-69
2024/01/12 01:58:37;;;;;;;31.43;17.57;;;;;;;;;;6245935;23;20402;-69
2024/01/12 02:01:03;;;;;;;29.93;17.53;;;;;;;;;;6246084;23;20496;-69
2024/01/12 02:03:29;;;;;;;29.07;17.60;;;;;;;;;;6246049;23;20382;-69
2024/01/12 02:05:56;;;;;;;33.20;18.90;;;;;;;;;;6245691;23;20374;-68
2024/01/12 02:08:22;;;;;;;28.67;18.10;;;;;;;;;;6245867;23;20429;-69
2024/01/12 02:10:52;;;;;;;34.63;19.00;;;;;;;;;;6246954;23;20454;-69
2024/01/12 02:13:18;;;;;;;33.67;18.57;;;;;;;;;;6245668;23;20887;-69
2024/01/12 02:15:44;;;;;;;33.83;18.33;;;;;;;;;;6245993;23;20370;-69
2024/01/12 02:18:10;;;;;;;37.87;19.30;;;;;;;;;;6245768;23;20455;-69
2024/01/12 02:20:36;;;;;;;28.50;18.40;;;;;;;;;;6245952;23;20370;-69
2024/01/12 02:23:02;;;;;;;28.00;17.07;;;;;;;;;;6245937;23;20378;-69
2024/01/12 02:25:28;;;;;;;35.13;18.43;;;;;;;;;;6245867;23;20908;-68
2024/01/12 02:27:54;;;;;;;31.87;18.27;;;;;;;;;;6245593;23;20777;-69
2024/01/12 02:30:20;;;;;;;25.77;16.03;;;;;;;;;;6245623;23;20374;-69
2024/01/12 02:32:46;;;;;;;33.93;19.13;;;;;;;;;;6246053;23;20383;-68
2024/01/12 02:35:12;;;;;;;28.77;16.90;;;;;;;;;;6245573;23;20685;-68
2024/01/12 02:37:38;;;;;;;25.43;16.10;;;;;;;;;;6245842;23;20385;-69
2024/01/12 02:40:04;;;;;;;31.97;17.77;;;;;;;;;;6245416;23;20904;-69
2024/01/12 02:42:30;;;;;;;26.27;16.63;;;;;;;;;;6246506;23;20386;-69
2024/01/12 02:44:56;;;;;;;32.37;17.77;;;;;;;;;;6245936;23;20374;-69
2024/01/12 02:47:22;;;;;;;28.87;18.20;;;;;;;;;;6245406;23;20826;-69
2024/01/12 02:49:48;;;;;;;29.30;16.77;;;;;;;;;;6245613;23;20456;-69
2024/01/12 02:52:14;;;;;;;27.37;16.50;;;;;;;;;;6245879;23;20376;-69
2024/01/12 02:54:40;;;;;;;39.23;18.70;;;;;;;;;;6247285;23;20838;-69
2024/01/12 02:57:06;;;;;;;30.10;17.00;;;;;;;;;;6246756;23;20765;-69
2024/01/12 02:59:32;;;;;;;34.47;17.40;;;;;;;;;;6247267;23;20430;-69
2024/01/12 03:01:58;;;;;;;30.00;17.97;;;;;;;;;;6247314;23;20676;-69
2024/01/12 03:04:24;;;;;;;26.03;16.40;;;;;;;;;;6247379;23;20370;-69
2024/01/12 03:06:50;;;;;;;26.87;16.83;;;;;;;;;;6247294;23;20449;-68
2024/01/12 03:09:16;;;;;;;25.90;16.17;;;;;;;;;;6247474;23;20440;-69
2024/01/12 03:11:42;;;;;;;25.23;16.87;;;;;;;;;;6247308;23;20840;-69
2024/01/12 03:14:08;;;;;;;25.97;16.70;;;;;;;;;;6247557;23;20378;-69
2024/01/12 03:16:34;;;;;;;28.67;16.53;;;;;;;;;;6247194;23;20851;-68
2024/01/12 03:19:00;;;;;;;28.77;16.60;;;;;;;;;;6220153;23;20413;-69
2024/01/12 03:21:26;;;;;;;31.57;17.93;;;;;;;;;;6247200;23;20375;-69
2024/01/12 03:23:52;;;;;;;25.57;17.43;;;;;;;;;;6247037;23;20378;-68
2024/01/12 03:26:18;;;;;;;40.87;19.47;;;;;;;;;;6247792;23;20425;-68
2024/01/12 03:28:44;;;;;;;30.70;16.03;;;;;;;;;;6247952;23;20422;-69
2024/01/12 03:31:10;;;;;;;28.30;16.87;;;;;;;;;;6247297;23;20374;-68
2024/01/12 03:33:37;;;;;;;30.43;16.93;;;;;;;;;;6247338;23;20385;-69
2024/01/12 03:36:07;;;;;;;28.73;15.93;;;;;;;;;;6247048;23;20378;-69
2024/01/12 03:38:33;;;;;;;29.70;16.43;;;;;;;;;;6246721;23;20433;-69
2024/01/12 03:40:59;;;;;;;28.70;15.80;;;;;;;;;;6247345;23;20423;-68
2024/01/12 03:43:24;;;;;;;28.53;15.60;;;;;;;;;;6247363;23;20370;-69
2024/01/12 03:45:50;;;;;;;34.27;18.30;;;;;;;;;;6247251;23;20374;-69
2024/01/12 03:48:17;;;;;;;27.80;16.73;;;;;;;;;;6247638;23;20562;-69
2024/01/12 03:50:43;;;;;;;32.23;17.77;;;;;;;;;;6247282;23;20378;-68
2024/01/12 03:53:09;;;;;;;23.13;15.33;;;;;;;;;;6247551;23;20858;-69
2024/01/12 03:55:35;;;;;;;26.23;16.63;;;;;;;;;;6246773;23;20366;-69
2024/01/12 03:58:01;;;;;;;24.40;16.43;;;;;;;;;;6248095;23;20421;-69
2024/01/12 04:00:27;;;;;;;26.93;16.67;;;;;;;;;;6247201;23;20446;-69
2024/01/12 04:02:53;;;;;;;27.00;16.10;;;;;;;;;;6246732;23;20374;-69
2024/01/12 04:05:19;;;;;;;33.80;15.97;;;;;;;;;;6246837;23;20373;-69
2024/01/12 04:07:45;;;;;;;21.57;14.60;;;;;;;;;;6246551;23;20422;-69
2024/01/12 04:10:11;;;;;;;28.10;16.60;;;;;;;;;;6219726;23;20398;-69
2024/01/12 04:12:38;;;;;;;27.73;15.30;;;;;;;;;;6247249;23;20378;-69
2024/01/12 04:15:06;;;;;;;29.10;16.03;;;;;;;;;;6246988;23;20382;-69
2024/01/12 04:17:32;;;;;;;25.40;16.10;;;;;;;;;;6220144;23;20378;-69
2024/01/12 04:19:57;;;;;;;26.00;13.67;;;;;;;;;;6246563;23;20424;-69
2024/01/12 04:22:23;;;;;;;26.77;15.63;;;;;;;;;;6246810;23;20374;-69
2024/01/12 04:24:49;;;;;;;25.10;15.10;;;;;;;;;;6246972;23;20374;-70
2024/01/12 04:27:15;;;;;;;26.13;14.57;;;;;;;;;;6246281;23;20449;-69
2024/01/12 04:29:41;;;;;;;28.70;16.90;;;;;;;;;;6246445;23;20382;-69
2024/01/12 04:32:08;;;;;;;24.57;14.40;;;;;;;;;;6246859;23;20410;-69
2024/01/12 04:34:37;;;;;;;28.87;15.70;;;;;;;;;;6246714;23;20432;-69
2024/01/12 04:37:03;;;;;;;27.37;17.33;;;;;;;;;;6246622;23;20370;-69
2024/01/12 04:39:29;;;;;;;24.57;15.67;;;;;;;;;;6246134;23;20462;-68
2024/01/12 04:41:55;;;;;;;26.73;14.83;;;;;;;;;;6247448;23;20400;-69
2024/01/12 04:44:21;;;;;;;30.30;17.37;;;;;;;;;;6219587;23;20394;-69
2024/01/12 04:46:47;;;;;;;32.97;15.30;;;;;;;;;;6246284;23;20372;-69
2024/01/12 04:49:13;;;;;;;27.30;16.30;;;;;;;;;;6246120;23;20425;-69
2024/01/12 04:51:39;;;;;;;40.33;19.67;;;;;;;;;;6246245;23;20366;-69
2024/01/12 04:54:05;;;;;;;52.70;22.90;;;;;;;;;;6246654;23;20406;-69
2024/01/12 04:56:31;;;;;;;66.27;28.47;;;;;;;;;;6246576;23;20382;-69
2024/01/12 04:58:57;;;;;;;44.10;19.73;;;;;;;;;;6246366;23;20374;-68
2024/01/12 05:01:23;;;;;;;33.27;17.90;;;;;;;;;;6246535;23;20821;-69
2024/01/12 05:03:49;;;;;;;25.47;15.70;;;;;;;;;;6246063;23;20393;-69
2024/01/12 05:06:15;;;;;;;26.20;15.37;;;;;;;;;;6219280;23;20378;-69
2024/01/12 05:08:41;;;;;;;25.83;14.70;;;;;;;;;;6246285;23;20437;-68
2024/01/12 05:11:07;;;;;;;29.07;16.90;;;;;;;;;;6245970;23;20370;-69
2024/01/12 05:13:33;;;;;;;31.73;17.90;;;;;;;;;;6246422;23;20428;-69
2024/01/12 05:15:59;;;;;;;33.20;18.10;;;;;;;;;;6245974;23;20371;-69
2024/01/12 05:18:25;;;;;;;36.00;19.40;;;;;;;;;;6246819;23;20389;-68
2024/01/12 05:20:51;;;;;;;48.07;22.60;;;;;;;;;;6246514;23;20413;-69
2024/01/12 05:23:19;;;;;;;40.17;18.53;;;;;;;;;;6245887;23;20868;-69
2024/01/12 05:25:45;;;;;;;27.27;17.43;;;;;;;;;;6245846;23;20860;-68
2024/01/12 05:28:11;;;;;;;29.90;17.90;;;;;;;;;;6245839;23;20519;-69
2024/01/12 05:30:37;;;;;;;37.13;16.70;;;;;;;;;;6246601;23;20453;-69
2024/01/12 05:33:03;;;;;;;25.77;16.50;;;;;;;;;;6246189;23;20374;-68
2024/01/12 05:35:29;;;;;;;27.73;16.17;;;;;;;;;;6245907;23;20376;-69
2024/01/12 05:37:55;;;;;;;30.10;16.80;;;;;;;;;;6218740;23;20470;-68
2024/01/12 05:40:21;;;;;;;27.93;15.60;;;;;;;;;;6246479;23;20362;-69
2024/01/12 05:42:47;;;;;;;28.40;17.10;;;;;;;;;;6245604;23;20754;-68
2024/01/12 05:45:13;;;;;;;29.40;14.40;;;;;;;;;;6245766;23;20383;-68
2024/01/12 05:47:39;;;;;;;26.93;15.33;;;;;;;;;;6246030;23;20429;-68
2024/01/12 05:50:06;;;;;;;32.80;16.90;;;;;;;;;;6245785;23;20378;-69
2024/01/12 05:52:33;;;;;;;26.97;16.53;;;;;;;;;;6245562;23;20663;-68
2024/01/12 05:54:59;;;;;;;27.10;18.70;;;;;;;;;;6246199;23;20370;-68
2024/01/12 05:57:25;;;;;;;25.70;16.27;;;;;;;;;;6246034;23;20385;-70
2024/01/12 05:59:52;;;;;;;26.67;16.50;;;;;;;;;;6246010;23;20443;-68
2024/01/12 06:02:18;;;;;;;27.87;16.70;;;;;;;;;;6246565;23;20382;-69
2024/01/12 06:04:44;;;;;;;28.97;17.17;;;;;;;;;;6245985;23;20370;-69
2024/01/12 06:07:10;;;;;;;26.93;16.83;;;;;;;;;;6218634;23;20378;-68
2024/01/12 06:09:36;;;;;;;25.33;16.83;;;;;;;;;;6245571;23;20382;-69
2024/01/12 06:12:02;;;;;;;24.50;15.80;;;;;;;;;;6245760;23;20386;-68
2024/01/12 06:14:28;;;;;;;24.93;16.10;;;;;;;;;;6246127;23;20473;-68
2024/01/12 06:16:54;;;;;;;26.60;16.87;;;;;;;;;;6246031;23;20370;-69
2024/01/12 06:19:19;;;;;;;27.30;18.20;;;;;;;;;;6245414;23;20410;-69
2024/01/12 06:21:45;;;;;;;27.50;16.00;;;;;;;;;;6245649;23;20375;-68
2024/01/12 06:24:11;;;;;;;24.43;15.30;;;;;;;;;;6245389;23;20397;-68
2024/01/12 06:26:37;;;;;;;28.50;16.50;;;;;;;;;;6245649;23;20801;-69
2024/01/12 06:29:03;;;;;;;33.70;17.47;;;;;;;;;;6247101;23;20911;-69
2024/01/12 06:31:32;;;;;;;44.17;21.93;;;;;;;;;;6247683;23;20378;-68
2024/01/12 06:33:58;;;;;;;47.27;23.23;;;;;;;;;;6247370;23;20382;-68
2024/01/12 06:36:24;;;;;;;51.33;24.63;;;;;;;;;;6247938;23;20465;-68
2024/01/12 06:38:50;;;;;;;53.10;22.50;;;;;;;;;;6247367;23;20525;-68
2024/01/12 06:41:16;;;;;;;52.50;23.97;;;;;;;;;;6247489;23;20437;-68
2024/01/12 06:43:42;;;;;;;45.93;23.03;;;;;;;;;;6247526;23;20850;-68
2024/01/12 06:46:08;;;;;;;49.17;23.90;;;;;;;;;;6247827;23;20877;-68
2024/01/12 06:48:34;;;;;;;46.03;23.60;;;;;;;;;;6247047;23;20885;-68
2024/01/12 06:51:01;;;;;;;48.30;23.93;;;;;;;;;;6246966;23;20450;-68
2024/01/12 06:53:27;;;;;;;45.10;23.97;;;;;;;;;;6247728;23;20381;-69
2024/01/12 06:55:52;;;;;;;37.00;21.20;;;;;;;;;;6247120;23;20370;-68
2024/01/12 06:58:19;;;;;;;31.27;18.57;;;;;;;;;;6247066;23;20443;-68
2024/01/12 07:00:45;;;;;;;30.77;17.30;;;;;;;;;;6247392;23;20395;-68
2024/01/12 07:03:11;;;;;;;28.70;17.40;;;;;;;;;;6247073;23;20406;-68
2024/01/12 07:05:37;;;;;;;35.00;18.63;;;;;;;;;;6247182;23;20844;-66
2024/01/12 07:08:03;;;;;;;27.10;16.57;;;;;;;;;;6220085;23;20436;-68
2024/01/12 07:10:29;;;;;;;26.37;17.27;;;;;;;;;;6246933;23;20390;-68
2024/01/12 07:12:55;;;;;;;36.20;18.33;;;;;;;;;;6220160;23;20389;-68
2024/01/12 07:15:21;;;;;;;30.30;18.63;;;;;;;;;;6247100;23;20513;-69
2024/01/12 07:17:50;;;;;;;37.90;17.70;;;;;;;;;;6246961;23;20375;-77
2024/01/12 07:20:16;;;;;;;39.70;17.53;;;;;;;;;;6247065;23;20374;-69
2024/01/12 07:22:43;;;;;;;31.60;19.20;;;;;;;;;;6246976;23;20409;-69
2024/01/12 07:25:09;;;;;;;31.43;18.10;;;;;;;;;;6247482;23;20401;-69
2024/01/12 07:27:35;;;;;;;35.63;21.50;;;;;;;;;;6220074;23;20484;-69
2024/01/12 07:30:01;;;;;;;33.80;18.67;;;;;;;;;;6247070;23;20595;-69
2024/01/12 07:32:27;;;;;;;47.83;22.50;;;;;;;;;;6246876;23;20473;-69
2024/01/12 07:34:53;;;;;;;38.27;21.70;;;;;;;;;;6246808;23;20371;-69
2024/01/12 07:37:19;;;;;;;27.47;18.03;;;;;;;;;;6247290;23;20384;-70
2024/01/12 07:39:45;;;;;;;36.93;19.43;;;;;;;;;;6246340;23;20421;-69
2024/01/12 07:42:11;;;;;;;30.47;17.73;;;;;;;;;;6246966;23;20378;-69
2024/01/12 07:44:37;;;;;;;34.37;18.70;;;;;;;;;;6246888;23;20366;-69
2024/01/12 07:47:04;;;;;;;37.00;20.70;;;;;;;;;;6247220;23;20406;-69
2024/01/12 07:49:30;;;;;;;40.47;19.80;;;;;;;;;;6246115;23;20488;-69
2024/01/12 07:51:56;;;;;;;36.87;21.23;;;;;;;;;;6219993;23;20469;-69
2024/01/12 07:54:22;;;;;;;30.80;18.70;;;;;;;;;;6247305;23;20383;-70
2024/01/12 07:56:48;;;;;;;37.73;20.93;;;;;;;;;;6246736;23;20927;-69
2024/01/12 07:59:14;;;;;;;39.77;20.33;;;;;;;;;;6246775;23;20468;-69
2024/01/12 08:01:41;;;;;;;37.50;20.73;;;;;;;;;;6246988;23;20383;-70
2024/01/12 08:04:07;;;;;;;43.10;22.93;;;;;;;;;;6246952;23;20385;-69
2024/01/12 08:06:33;;;;;;;34.77;21.97;;;;;;;;;;6246946;23;20371;-69
2024/01/12 08:08:59;;;;;;;30.30;19.40;;;;;;;;;;6247311;23;20985;-69
2024/01/12 08:11:25;;;;;;;37.57;18.67;;;;;;;;;;6247071;23;20374;-69
2024/01/12 08:13:51;;;;;;;38.03;19.43;;;;;;;;;;6247027;23;20379;-69
2024/01/12 08:16:17;;;;;;;28.50;17.70;;;;;;;;;;6246963;23;20371;-69
2024/01/12 08:18:43;;;;;;;32.07;17.17;;;;;;;;;;6246415;23;20837;-68
2024/01/12 08:21:09;;;;;;;33.20;19.20;;;;;;;;;;6246869;23;20370;-69
2024/01/12 08:23:35;;;;;;;37.77;19.97;;;;;;;;;;6246988;23;20436;-69
2024/01/12 08:26:01;;;;;;;28.50;18.33;;;;;;;;;;6246545;23;20442;-68
2024/01/12 08:28:27;;;;;;;31.27;18.67;;;;;;;;;;6246284;23;20500;-68
2024/01/12 08:33:56;;;;;;;35.07;19.00;;;;;;;;;;6246558;23;20393;-69
2024/01/12 08:36:22;;;;;;;34.97;17.27;;;;;;;;;;6246769;23;20366;-69
2024/01/12 08:38:48;;;;;;;28.27;17.43;;;;;;;;;;6219185;23;20434;-69
2024/01/12 08:41:14;;;;;;;38.20;16.93;;;;;;;;;;6246835;23;20383;-69
2024/01/12 08:43:40;;;;;;;28.60;18.00;;;;;;;;;;6219901;23;20680;-70
2024/01/12 08:46:08;;;;;;;30.90;18.53;;;;;;;;;;6246635;23;20381;-69
2024/01/12 08:48:34;;;;;;;28.67;17.37;;;;;;;;;;6219235;23;20772;-69
2024/01/12 08:51:00;;;;;;;25.67;16.63;;;;;;;;;;6246558;23;20382;-69
2024/01/12 08:53:26;;;;;;;29.57;17.40;;;;;;;;;;6246578;23;20382;-69
2024/01/12 08:55:53;;;;;;;54.87;32.97;;;;;;;;;;6246525;23;20371;-69
2024/01/12 08:58:19;;;;;;;39.77;20.17;;;;;;;;;;6219365;23;20394;-69
2024/01/12 09:00:45;;;;;;;49.47;30.97;;;;;;;;;;6246122;23;20366;-68
2024/01/12 09:03:11;;;;;;;32.53;18.20;;;;;;;;;;6246230;23;20879;-69
2024/01/12 09:05:37;;;;;;;32.70;17.93;;;;;;;;;;6246685;23;20366;-69
2024/01/12 09:08:03;;;;;;;29.57;19.90;;;;;;;;;;6245866;23;20505;-68
2024/01/12 09:10:29;;;;;;;37.93;23.67;;;;;;;;;;6246085;23;20378;-69
2024/01/12 09:12:55;;;;;;;37.67;21.00;;;;;;;;;;6246304;23;20371;-68
2024/01/12 09:15:21;;;;;;;32.70;19.30;;;;;;;;;;6246525;23;20377;-68
2024/01/12 09:17:48;;;;;;;35.07;17.77;;;;;;;;;;6246274;23;20381;-68
2024/01/12 09:20:15;;;;;;;30.73;19.40;;;;;;;;;;6246331;23;20378;-68
2024/01/12 09:22:41;;;;;;;31.33;19.43;;;;;;;;;;6246048;23;20885;-68
2024/01/12 09:25:07;;;;;;;47.53;21.37;;;;;;;;;;6245990;23;20394;-68
2024/01/12 09:27:33;;;;;;;32.27;21.03;;;;;;;;;;6245623;23;20887;-68
2024/01/12 09:29:59;;;;;;;39.10;22.73;;;;;;;;;;6246519;23;20381;-68
2024/01/12 09:32:26;;;;;;;45.37;23.70;;;;;;;;;;6246623;23;20367;-68
2024/01/12 09:34:52;;;;;;;42.47;25.97;;;;;;;;;;6245863;23;20390;-68
2024/01/12 09:37:18;;;;;;;55.00;24.00;;;;;;;;;;6245810;23;20475;-69
2024/01/12 09:39:44;;;;;;;50.60;25.90;;;;;;;;;;6245733;23;20434;-68
2024/01/12 09:42:13;;;;;;;51.57;29.47;;;;;;;;;;6246207;23;20899;-64
2024/01/12 09:44:45;;;;;;;46.90;26.53;;;;;;;;;;6246063;23;20440;-69
2024/01/12 09:47:12;;;;;;;48.87;24.17;;;;;;;;;;6246017;23;20829;-68
2024/01/12 09:49:38;;;;;;;33.57;18.93;;;;;;;;;;6245981;23;20391;-69
2024/01/12 09:52:07;;;;;;;36.33;18.90;;;;;;;;;;6246703;23;20389;-69
2024/01/12 09:54:34;;;;;;;31.90;17.30;;;;;;;;;;6246369;23;20789;-68
2024/01/12 09:57:02;;;;;;;28.40;16.73;;;;;;;;;;6246757;23;20390;-68
2024/01/12 09:59:29;;;;;;;29.23;17.50;;;;;;;;;;6245814;23;20374;-68
2024/01/12 10:01:56;;;;;;;33.13;17.07;;;;;;;;;;6245036;23;20446;-68
2024/01/12 10:04:22;;;;;;;29.73;19.47;;;;;;;;;;6245660;23;20381;-68
2024/01/12 10:06:48;;;;;;;35.23;18.20;;;;;;;;;;6245567;23;20458;-69
2024/01/12 10:09:16;;;;;;;32.67;19.17;;;;;;;;;;6245842;23;20430;-68
2024/01/12 10:11:42;;;;;;;30.63;17.90;;;;;;;;;;6245926;23;20381;-68
2024/01/12 10:14:08;;;;;;;31.00;18.93;;;;;;;;;;6245821;23;20382;-67
2024/01/12 10:16:34;;;;;;;34.47;20.70;;;;;;;;;;6245625;23;20374;-66
2024/01/12 10:19:00;;;;;;;36.20;21.53;;;;;;;;;;6245355;23;20782;-66
2024/01/12 10:21:27;;;;;;;31.60;19.33;;;;;;;;;;6245647;23;20844;-69
2024/01/12 10:24:05;;;;;;;29.73;18.40;;;;;;;;;;6245960;23;20454;-68
2024/01/12 10:26:32;;;;;;;37.50;20.30;;;;;;;;;;6245577;23;20374;-68
2024/01/12 10:29:02;;;;;;;32.60;19.50;;;;;;;;;;6246121;23;20429;-68
2024/01/12 10:31:29;;;;;;;33.27;18.97;;;;;;;;;;6245836;23;20375;-68
2024/01/12 10:33:57;;;;;;;31.50;17.73;;;;;;;;;;6245724;23;20386;-68
2024/01/12 10:36:24;;;;;;;33.43;17.87;;;;;;;;;;6218695;23;20722;-67
2024/01/12 10:38:50;;;;;;;36.77;19.83;;;;;;;;;;6245420;23;20540;-68
2024/01/12 10:41:18;;;;;;;29.27;18.40;;;;;;;;;;6245952;23;20548;-68
2024/01/12 10:43:44;;;;;;;28.53;16.80;;;;;;;;;;6245746;23;20374;-68
2024/01/12 10:46:12;;;;;;;36.43;19.87;;;;;;;;;;6245159;23;20429;-68
2024/01/12 10:48:51;;;;;;;32.93;18.33;;;;;;;;;;6245651;23;20426;-68
2024/01/12 10:51:19;;;;;;;31.70;19.33;;;;;;;;;;6246071;23;20401;-68
2024/01/12 10:54:01;;;;;;;36.80;19.77;;;;;;;;;;6245343;23;20416;-68
2024/01/12 10:56:28;;;;;;;40.83;22.70;;;;;;;;;;6245808;23;20378;-68
2024/01/12 10:58:54;;;;;;;54.53;25.77;;;;;;;;;;6245757;23;20374;-68
2024/01/12 11:01:21;;;;;;;35.03;20.27;;;;;;;;;;6218555;23;20387;-69
2024/01/12 11:03:48;;;;;;;37.70;19.70;;;;;;;;;;6245432;23;20382;-68
2024/01/12 11:06:16;;;;;;;30.97;19.20;;;;;;;;;;6245447;23;20847;-68
2024/01/12 11:08:42;;;;;;;37.17;19.70;;;;;;;;;;6245605;23;20769;-68
2024/01/12 11:11:09;;;;;;;33.20;19.97;;;;;;;;;;6244876;23;20378;-69
2024/01/12 11:13:36;;;;;;;33.67;20.20;;;;;;;;;;6245780;23;20397;-68
2024/01/12 11:16:03;;;;;;;36.40;20.43;;;;;;;;;;6247263;23;20408;-67
2024/01/12 11:18:35;;;;;;;33.90;21.00;;;;;;;;;;6246947;23;20392;-68
2024/01/12 11:21:02;;;;;;;32.30;19.57;;;;;;;;;;6247120;23;20785;-68
2024/01/12 11:23:28;;;;;;;41.60;20.40;;;;;;;;;;6247504;23;20441;-69
2024/01/12 11:25:54;;;;;;;38.60;21.60;;;;;;;;;;6247329;23;20374;-69
2024/01/12 11:28:20;;;;;;;34.83;19.47;;;;;;;;;;6247199;23;20421;-68
2024/01/12 11:30:50;;;;;;;35.27;22.37;;;;;;;;;;6247411;23;20917;-68
2024/01/12 11:33:19;;;;;;;38.73;20.83;;;;;;;;;;6247962;23;20378;-68
2024/01/12 11:35:51;;;;;;;33.93;20.03;;;;;;;;;;6247118;23;20374;-68
2024/01/12 11:38:18;;;;;;;33.17;18.77;;;;;;;;;;6246749;23;20480;-68
2024/01/12 11:40:48;;;;;;;35.40;21.70;;;;;;;;;;6247377;23;20387;-68
2024/01/12 11:43:17;;;;;;;36.90;21.90;;;;;;;;;;6247353;23;20393;-68
2024/01/12 11:45:44;;;;;;;35.60;22.13;;;;;;;;;;6220743;23;20390;-68
2024/01/12 11:48:14;;;;;;;32.87;18.47;;;;;;;;;;6246965;23;20441;-68
2024/01/12 11:53:48;;;;;;;29.63;17.37;;;;;;;;;;6246900;23;20357;-68
2024/01/12 11:56:14;;;;;;;37.50;23.07;;;;;;;;;;6247435;23;20363;-63
2024/01/12 11:58:40;;;;;;;37.67;22.83;;;;;;;;;;6247042;23;20823;-68
2024/01/12 12:01:07;;;;;;;39.47;24.37;;;;;;;;;;6220268;23;20707;-66
2024/01/12 12:03:33;;;;;;;42.23;25.63;;;;;;;;;;6248249;23;20386;-69
2024/01/12 12:05:59;;;;;;;42.40;23.80;;;;;;;;;;6247421;23;20456;-67
2024/01/12 12:08:27;;;;;;;48.83;25.40;;;;;;;;;;6246530;23;20429;-66
2024/01/12 12:10:53;;;;;;;39.03;22.23;;;;;;;;;;6246862;23;20381;-68
2024/01/12 12:13:19;;;;;;;55.33;29.00;;;;;;;;;;6246947;23;20374;-63
2024/01/12 12:15:46;;;;;;;51.03;25.47;;;;;;;;;;6246857;23;20453;-68
2024/01/12 12:18:13;;;;;;;55.50;29.17;;;;;;;;;;6246470;23;20816;-68
2024/01/12 12:20:41;;;;;;;50.07;29.20;;;;;;;;;;6246946;23;20405;-68
2024/01/12 12:23:07;;;;;;;38.20;22.97;;;;;;;;;;6219652;23;20709;-69
2024/01/12 12:25:33;;;;;;;49.70;26.60;;;;;;;;;;6219480;23;20489;-68
2024/01/12 12:27:59;;;;;;;53.43;27.77;;;;;;;;;;6246413;23;20425;-69
2024/01/12 12:30:28;;;;;;;42.37;24.17;;;;;;;;;;6246499;23;20378;-68
2024/01/12 12:32:58;;;;;;;35.80;24.47;;;;;;;;;;6246905;23;20393;-69
2024/01/12 12:35:24;;;;;;;43.07;24.60;;;;;;;;;;6246294;23;20386;-68
2024/01/12 12:37:53;;;;;;;44.77;25.77;;;;;;;;;;6246460;23;20379;-68
2024/01/12 12:40:20;;;;;;;46.43;24.33;;;;;;;;;;6246278;23;20375;-68
2024/01/12 12:42:50;;;;;;;43.30;25.60;;;;;;;;;;6246415;23;20750;-68
2024/01/12 12:45:16;;;;;;;41.50;23.30;;;;;;;;;;6246503;23;20458;-68
2024/01/12 12:47:43;;;;;;;41.40;23.33;;;;;;;;;;6246543;23;20440;-69
2024/01/12 12:50:09;;;;;;;51.37;25.67;;;;;;;;;;6246105;23;20402;-68
2024/01/12 12:52:36;;;;;;;37.50;22.77;;;;;;;;;;6246006;23;20367;-69
2024/01/12 12:55:03;;;;;;;52.83;21.33;;;;;;;;;;6246396;23;20457;-68
2024/01/12 12:57:29;;;;;;;42.53;21.37;;;;;;;;;;6246255;23;20858;-69
2024/01/12 12:59:55;;;;;;;42.73;23.63;;;;;;;;;;6246134;23;20382;-69
2024/01/12 13:02:21;;;;;;;46.90;23.30;;;;;;;;;;6246504;23;20377;-69
2024/01/12 13:04:47;;;;;;;40.97;24.57;;;;;;;;;;6219451;23;20844;-69
2024/01/12 13:07:13;;;;;;;42.27;21.57;;;;;;;;;;6246815;23;20400;-69
2024/01/12 13:09:39;;;;;;;39.80;22.13;;;;;;;;;;6245662;23;20434;-69
2024/01/12 13:12:06;;;;;;;40.80;23.50;;;;;;;;;;6246359;23;20747;-69
2024/01/12 13:14:32;;;;;;;43.33;23.30;;;;;;;;;;6245984;23;20941;-68
2024/01/12 13:16:58;;;;;;;42.83;22.83;;;;;;;;;;6246364;23;20366;-68
2024/01/12 13:19:24;;;;;;;43.10;23.70;;;;;;;;;;6219137;23;20393;-69
2024/01/12 13:21:50;;;;;;;43.90;22.80;;;;;;;;;;6246364;23;20374;-68
2024/01/12 13:24:16;;;;;;;36.87;22.50;;;;;;;;;;6246019;23;20405;-69
2024/01/12 13:26:42;;;;;;;42.57;22.80;;;;;;;;;;6245898;23;20382;-68
2024/01/12 13:29:08;;;;;;;40.03;21.80;;;;;;;;;;6245592;23;20551;-68
2024/01/12 13:31:35;;;;;;;48.70;25.90;;;;;;;;;;6246207;23;20371;-69
2024/01/12 13:34:01;;;;;;;46.17;23.60;;;;;;;;;;6246101;23;20452;-69
2024/01/12 13:36:27;;;;;;;56.97;31.87;;;;;;;;;;6245728;23;20371;-69
2024/01/12 13:38:53;;;;;;;51.27;29.53;;;;;;;;;;6245627;23;20491;-69
2024/01/12 13:41:23;;;;;;;43.50;25.80;;;;;;;;;;6246288;23;20382;-68
2024/01/12 13:43:50;;;;;;;70.37;36.27;;;;;;;;;;6245803;23;20381;-69
2024/01/12 13:46:16;;;;;;;42.07;26.27;;;;;;;;;;6245178;23;20377;-69
2024/01/12 13:48:42;;;;;;;41.23;24.13;;;;;;;;;;6245391;23;20425;-69
2024/01/12 13:51:08;;;;;;;39.43;22.67;;;;;;;;;;6246572;23;20370;-69
2024/01/12 13:53:34;;;;;;;49.27;26.20;;;;;;;;;;6245922;23;20758;-68
2024/01/12 13:56:00;;;;;;;48.63;25.83;;;;;;;;;;6246163;23;20397;-69
2024/01/12 13:58:28;;;;;;;44.47;24.17;;;;;;;;;;6218756;23;20439;-69
2024/01/12 14:00:54;;;;;;;40.33;23.23;;;;;;;;;;6245687;23;20378;-69
2024/01/12 14:03:20;;;;;;;48.17;25.90;;;;;;;;;;6245923;23;20938;-69
2024/01/12 14:05:47;;;;;;;45.57;22.40;;;;;;;;;;6245912;23;20371;-69
2024/01/12 14:08:13;;;;;;;43.63;25.00;;;;;;;;;;6245819;23;20430;-69
2024/01/12 14:10:41;;;;;;;62.07;33.10;;;;;;;;;;6245112;23;20374;-69
2024/01/12 14:13:08;;;;;;;46.50;24.67;;;;;;;;;;6245546;23;20382;-69
2024/01/12 14:15:35;;;;;;;56.20;29.07;;;;;;;;;;6245534;23;20374;-68
2024/01/12 14:18:01;;;;;;;74.20;36.47;;;;;;;;;;6245438;23;20864;-69